createdAt,value
2019-02-26T00:01:30.909Z,5.82
2019-02-26T00:04:01.466Z,5.88
2019-02-26T00:06:31.936Z,5.94
2019-02-26T00:09:03.975Z,6.00
2019-02-26T00:11:36.209Z,5.98
2019-02-26T00:14:06.572Z,6.02
2019-02-26T00:16:39.751Z,6.10
2019-02-26T00:19:09.792Z,6.13
2019-02-26T00:21:43.003Z,6.16
2019-02-26T00:24:14.694Z,6.21
2019-02-26T00:26:45.819Z,6.20
2019-02-26T00:29:16.280Z,6.26
2019-02-26T00:31:48.535Z,6.32
2019-02-26T00:34:18.959Z,6.34
2019-02-26T00:36:49.369Z,6.38
2019-02-26T00:39:20.617Z,6.40
2019-02-26T00:41:53.633Z,6.38
2019-02-26T00:44:25.230Z,6.39
2019-02-26T00:46:57.506Z,6.39
2019-02-26T00:49:30.227Z,6.39
2019-02-26T00:52:00.762Z,6.42
2019-02-26T00:54:31.981Z,6.40
2019-02-26T00:57:05.740Z,6.39
2019-02-26T00:59:36.550Z,6.43
2019-02-26T01:02:07.836Z,6.37
2019-02-26T01:04:39.091Z,6.38
2019-02-26T01:07:10.126Z,6.37
2019-02-26T01:09:40.580Z,6.28
2019-02-26T01:12:11.800Z,6.28
2019-02-26T01:14:44.063Z,6.20
2019-02-26T01:17:16.953Z,6.16
2019-02-26T01:19:47.426Z,6.14
2019-02-26T01:22:19.482Z,6.20
2019-02-26T01:24:51.809Z,6.18
2019-02-26T01:27:21.971Z,6.23
2019-02-26T01:29:54.021Z,6.27
2019-02-26T01:32:24.964Z,6.39
2019-02-26T01:34:55.519Z,6.38
2019-02-26T01:37:27.788Z,6.38
2019-02-26T01:39:59.269Z,6.39
2019-02-26T01:42:31.588Z,6.26
2019-02-26T01:45:01.866Z,6.22
2019-02-26T01:47:32.349Z,6.17
2019-02-26T01:50:04.161Z,6.13
2019-02-26T01:52:34.840Z,6.08
2019-02-26T01:55:06.617Z,6.04
2019-02-26T01:57:37.106Z,6.01
2019-02-26T02:00:16.949Z,6.05
2019-02-26T02:02:47.701Z,6.07
2019-02-26T02:05:19.649Z,6.05
2019-02-26T02:07:51.822Z,6.04
2019-02-26T02:10:23.097Z,6.03
2019-02-26T02:12:57.397Z,6.02
2019-02-26T02:15:25.729Z,6.04
2019-02-26T02:17:57.736Z,6.02
2019-02-26T02:20:28.342Z,6.01
2019-02-26T02:23:00.584Z,6.01
2019-02-26T02:25:33.172Z,6.05
2019-02-26T02:28:04.530Z,6.03
2019-02-26T02:30:38.198Z,6.05
2019-02-26T02:33:07.441Z,6.12
2019-02-26T02:35:37.866Z,6.15
2019-02-26T02:38:08.332Z,6.20
2019-02-26T02:40:40.173Z,6.16
2019-02-26T02:43:13.232Z,6.16
2019-02-26T02:45:42.989Z,6.07
2019-02-26T02:48:14.217Z,6.08
2019-02-26T02:50:44.785Z,6.02
2019-02-26T02:53:15.183Z,6.01
2019-02-26T02:55:46.971Z,6.01
2019-02-26T02:58:18.812Z,6.05
2019-02-26T03:00:52.240Z,6.09
2019-02-26T03:03:22.121Z,6.09
2019-02-26T03:05:52.505Z,6.10
2019-02-26T03:08:22.981Z,6.04
2019-02-26T03:10:53.494Z,6.05
2019-02-26T03:13:25.437Z,5.99
2019-02-26T03:15:58.629Z,5.97
2019-02-26T03:18:28.371Z,5.93
2019-02-26T03:20:59.957Z,5.90
2019-02-26T03:23:31.970Z,5.90
2019-02-26T03:26:03.913Z,5.89
2019-02-26T03:28:37.548Z,5.88
2019-02-26T03:31:07.647Z,5.88
2019-02-26T03:33:38.052Z,5.85
2019-02-26T03:36:10.923Z,5.85
2019-02-26T03:38:40.843Z,5.86
2019-02-26T03:41:12.835Z,5.88
2019-02-26T03:43:43.322Z,5.83
2019-02-26T03:46:13.795Z,5.77
2019-02-26T03:48:44.292Z,5.73
2019-02-26T03:51:17.203Z,5.72
2019-02-26T03:53:46.986Z,5.69
2019-02-26T03:56:20.438Z,5.66
2019-02-26T03:58:52.086Z,5.65
2019-02-26T04:01:22.201Z,5.67
2019-02-26T04:03:54.714Z,5.70
2019-02-26T04:06:24.999Z,5.76
2019-02-26T04:08:55.928Z,5.77
2019-02-26T04:11:27.818Z,5.84
2019-02-26T04:13:58.462Z,5.91
2019-02-26T04:16:29.856Z,6.07
2019-02-26T04:19:01.031Z,6.14
2019-02-26T04:22:28.916Z,6.14
2019-02-26T04:25:08.238Z,6.09
2019-02-26T04:28:07.765Z,6.06
2019-02-26T04:31:35.257Z,5.96
2019-02-26T04:34:45.706Z,5.90
2019-02-26T04:38:03.341Z,5.86
2019-02-26T04:41:15.935Z,5.89
2019-02-26T04:44:15.778Z,5.78
2019-02-26T04:47:18.456Z,5.68
2019-02-26T04:49:48.921Z,5.58
2019-02-26T04:52:19.421Z,5.54
2019-02-26T04:54:49.985Z,5.47
2019-02-26T04:57:20.440Z,5.50
2019-02-26T04:59:50.999Z,5.41
2019-02-26T05:02:21.525Z,5.30
2019-02-26T05:04:51.967Z,5.19
2019-02-26T05:07:22.436Z,5.20
2019-02-26T05:09:55.836Z,5.26
2019-02-26T05:12:28.036Z,5.26
2019-02-26T05:14:57.411Z,5.27
2019-02-26T05:17:30.219Z,5.31
2019-02-26T05:20:00.186Z,5.41
2019-02-26T05:22:33.107Z,5.38
2019-02-26T05:25:04.741Z,5.39
2019-02-26T05:27:36.374Z,5.39
2019-02-26T05:30:09.899Z,5.33
2019-02-26T05:32:40.206Z,5.37
2019-02-26T05:35:11.603Z,5.41
2019-02-26T05:37:42.870Z,5.34
2019-02-26T05:40:16.417Z,5.27
2019-02-26T05:42:45.631Z,5.21
2019-02-26T05:45:16.297Z,5.15
2019-02-26T05:47:50.189Z,5.10
2019-02-26T05:50:18.832Z,5.16
2019-02-26T05:52:50.425Z,5.15
2019-02-26T05:55:23.577Z,5.14
2019-02-26T05:57:53.834Z,5.11
2019-02-26T06:00:28.439Z,5.25
2019-02-26T06:02:56.800Z,5.38
2019-02-26T06:05:27.167Z,5.43
2019-02-26T06:07:57.645Z,5.56
2019-02-26T06:10:30.460Z,5.65
2019-02-26T06:13:02.197Z,5.70
2019-02-26T06:15:34.151Z,5.74
2019-02-26T06:18:04.779Z,5.82
2019-02-26T06:20:36.635Z,5.86
2019-02-26T06:23:07.430Z,5.91
2019-02-26T06:25:38.052Z,5.95
2019-02-26T06:28:10.572Z,6.02
2019-02-26T06:30:41.044Z,6.05
2019-02-26T06:33:13.886Z,6.05
2019-02-26T06:35:44.296Z,6.10
2019-02-26T06:38:14.853Z,6.12
2019-02-26T06:40:47.105Z,6.16
2019-02-26T06:43:17.769Z,6.21
2019-02-26T06:45:48.690Z,6.23
2019-02-26T06:48:20.792Z,6.19
2019-02-26T06:50:51.856Z,6.20
2019-02-26T06:53:22.601Z,6.19
2019-02-26T06:55:53.119Z,6.26
2019-02-26T06:58:28.941Z,6.22
2019-02-26T07:01:01.226Z,6.20
2019-02-26T07:03:31.989Z,6.18
2019-02-26T07:06:04.852Z,6.18
2019-02-26T07:08:35.268Z,6.24
2019-02-26T07:11:07.309Z,6.22
2019-02-26T07:13:39.246Z,6.19
2019-02-26T07:16:10.982Z,6.21
2019-02-26T07:18:41.445Z,6.26
2019-02-26T07:21:15.196Z,6.26
2019-02-26T07:23:45.857Z,6.38
2019-02-26T07:26:18.514Z,6.45
2019-02-26T07:28:51.075Z,6.38
2019-02-26T07:31:21.716Z,6.44
2019-02-26T07:33:53.295Z,6.52
2019-02-26T07:36:27.632Z,6.48
2019-02-26T07:38:56.752Z,6.48
2019-02-26T07:41:29.838Z,6.51
2019-02-26T07:44:00.068Z,6.62
2019-02-26T07:46:30.770Z,6.71
2019-02-26T07:49:02.625Z,6.73
2019-02-26T07:51:35.596Z,6.83
2019-02-26T07:54:06.266Z,6.90
2019-02-26T07:56:36.813Z,6.76
2019-02-26T07:59:09.906Z,6.71
2019-02-26T08:01:42.249Z,6.82
2019-02-26T08:04:13.568Z,6.79
2019-02-26T08:06:44.726Z,6.86
2019-02-26T08:09:17.023Z,6.87
2019-02-26T08:11:49.072Z,6.98
2019-02-26T08:14:20.993Z,7.15
2019-02-26T08:16:55.690Z,7.11
2019-02-26T08:19:29.566Z,7.34
2019-02-26T08:21:57.136Z,7.13
2019-02-26T08:24:27.730Z,7.26
2019-02-26T08:26:58.242Z,7.36
2019-02-26T08:29:30.821Z,7.33
2019-02-26T08:32:01.988Z,7.36
2019-02-26T08:34:32.716Z,7.24
2019-02-26T08:37:03.320Z,7.27
2019-02-26T08:39:35.651Z,7.27
2019-02-26T08:42:11.922Z,7.22
2019-02-26T08:44:42.426Z,7.20
2019-02-26T08:47:13.916Z,7.19
2019-02-26T08:49:47.526Z,7.22
2019-02-26T08:52:19.923Z,7.17
2019-02-26T08:54:50.301Z,7.00
2019-02-26T08:57:20.869Z,7.05
2019-02-26T08:59:52.243Z,7.13
2019-02-26T09:02:23.763Z,7.11
2019-02-26T09:04:54.286Z,7.19
2019-02-26T09:07:26.295Z,7.34
2019-02-26T09:09:57.714Z,7.36
2019-02-26T09:12:28.446Z,7.44
2019-02-26T09:14:59.570Z,7.70
2019-02-26T09:17:32.481Z,7.60
2019-02-26T09:20:09.300Z,7.58
2019-02-26T09:22:34.770Z,8.03
2019-02-26T09:25:06.099Z,8.02
2019-02-26T09:27:42.493Z,8.11
2019-02-26T09:30:15.919Z,8.11
2019-02-26T09:32:45.883Z,8.27
2019-02-26T09:35:19.132Z,8.34
2019-02-26T09:37:50.736Z,7.85
2019-02-26T09:40:23.451Z,7.87
2019-02-26T09:42:55.177Z,8.03
2019-02-26T09:45:29.534Z,8.05
2019-02-26T09:48:00.988Z,8.26
2019-02-26T09:50:31.086Z,9.01
2019-02-26T09:53:02.195Z,8.96
2019-02-26T09:55:32.610Z,9.43
2019-02-26T09:58:03.169Z,9.26
2019-02-26T10:00:33.850Z,10.00
2019-02-26T10:03:06.178Z,10.94
2019-02-26T10:05:36.829Z,10.74
2019-02-26T10:08:07.323Z,9.91
2019-02-26T10:10:39.800Z,9.63
2019-02-26T10:13:09.989Z,10.33
2019-02-26T10:15:42.773Z,10.30
2019-02-26T10:18:12.856Z,10.38
2019-02-26T10:20:45.614Z,11.09
2019-02-26T10:23:15.640Z,11.50
2019-02-26T10:25:46.520Z,12.40
2019-02-26T10:28:19.011Z,12.66
2019-02-26T10:30:49.273Z,14.07
2019-02-26T10:33:21.132Z,13.79
2019-02-26T10:35:52.681Z,13.68
2019-02-26T10:38:28.417Z,12.87
2019-02-26T10:40:59.109Z,13.87
2019-02-26T10:43:28.994Z,14.94
2019-02-26T10:45:59.397Z,15.15
2019-02-26T10:48:29.871Z,14.91
2019-02-26T10:51:00.670Z,13.56
2019-02-26T10:53:31.275Z,14.08
2019-02-26T10:56:01.781Z,15.07
2019-02-26T10:58:32.335Z,15.32
2019-02-26T11:01:05.257Z,17.09
2019-02-26T11:03:38.289Z,15.36
2019-02-26T11:06:09.916Z,16.48
2019-02-26T11:08:40.223Z,15.19
2019-02-26T11:11:13.020Z,16.39
2019-02-26T11:13:45.322Z,14.61
2019-02-26T11:16:21.797Z,15.74
2019-02-26T11:18:47.823Z,14.58
2019-02-26T11:21:18.395Z,14.15
2019-02-26T11:23:48.795Z,13.48
2019-02-26T11:26:19.389Z,13.93
2019-02-26T11:28:49.786Z,13.53
2019-02-26T11:31:25.020Z,14.14
2019-02-26T11:33:56.365Z,14.16
2019-02-26T11:36:25.184Z,14.38
2019-02-26T11:38:55.720Z,14.91
2019-02-26T11:41:27.020Z,14.96
2019-02-26T11:43:58.500Z,17.30
2019-02-26T11:46:29.833Z,17.16
2019-02-26T11:49:01.091Z,17.49
2019-02-26T11:51:37.150Z,17.38
2019-02-26T11:54:04.961Z,17.40
2019-02-26T11:56:38.513Z,16.35
2019-02-26T11:59:09.631Z,16.97
2019-02-26T12:01:42.110Z,17.04
2019-02-26T12:04:14.285Z,17.06
2019-02-26T12:06:44.712Z,17.05
2019-02-26T12:09:16.212Z,17.01
2019-02-26T12:11:46.908Z,17.82
2019-02-26T12:14:19.488Z,18.02
2019-02-26T12:16:49.725Z,17.56
2019-02-26T12:19:20.262Z,15.90
2019-02-26T12:21:51.882Z,15.41
2019-02-26T12:24:24.210Z,15.01
2019-02-26T12:26:55.266Z,14.52
2019-02-26T12:29:28.374Z,14.62
2019-02-26T12:32:01.050Z,14.54
2019-02-26T12:34:30.655Z,13.99
2019-02-26T12:37:02.799Z,13.64
2019-02-26T12:39:33.879Z,13.91
2019-02-26T12:42:04.375Z,13.71
2019-02-26T12:44:37.913Z,13.66
2019-02-26T12:47:07.201Z,13.44
2019-02-26T12:49:39.183Z,13.57
2019-02-26T12:52:10.022Z,13.40
2019-02-26T12:54:42.731Z,13.23
2019-02-26T12:57:12.753Z,13.16
2019-02-26T12:59:43.115Z,13.36
2019-02-26T13:02:16.703Z,13.29
2019-02-26T13:04:48.016Z,13.21
2019-02-26T13:07:18.445Z,13.41
2019-02-26T13:09:54.090Z,13.52
2019-02-26T13:12:24.173Z,13.64
2019-02-26T13:14:56.473Z,14.03
2019-02-26T13:17:28.183Z,14.06
2019-02-26T13:20:01.012Z,14.05
2019-02-26T13:22:30.922Z,14.07
2019-02-26T13:25:03.558Z,14.29
2019-02-26T13:27:35.219Z,13.89
2019-02-26T13:30:09.155Z,14.28
2019-02-26T13:32:55.259Z,13.92
2019-02-26T13:35:12.661Z,14.10
2019-02-26T13:37:43.316Z,13.97
2019-02-26T13:40:16.685Z,14.17
2019-02-26T13:42:59.935Z,14.24
2019-02-26T13:45:21.545Z,14.04
2019-02-26T13:47:52.390Z,13.56
2019-02-26T13:50:26.236Z,13.54
2019-02-26T13:52:56.831Z,13.75
2019-02-26T13:55:27.320Z,13.78
2019-02-26T13:57:58.706Z,13.77
2019-02-26T14:00:29.300Z,13.50
2019-02-26T14:02:59.734Z,13.26
2019-02-26T14:05:37.886Z,12.81
2019-02-26T14:08:03.090Z,12.64
2019-02-26T14:10:33.660Z,12.75
2019-02-26T14:13:04.666Z,12.77
2019-02-26T14:15:35.325Z,12.63
2019-02-26T14:18:05.888Z,12.64
2019-02-26T14:20:36.336Z,12.72
2019-02-26T14:23:06.927Z,12.30
2019-02-26T14:25:37.494Z,12.40
2019-02-26T14:28:08.120Z,12.02
2019-02-26T14:30:38.725Z,12.11
2019-02-26T14:33:09.418Z,11.64
2019-02-26T14:35:39.818Z,11.53
2019-02-26T14:38:11.140Z,11.37
2019-02-26T14:40:41.649Z,11.24
2019-02-26T14:43:12.152Z,11.28
2019-02-26T14:45:44.369Z,10.90
2019-02-26T14:48:15.249Z,10.92
2019-02-26T14:50:45.886Z,10.68
2019-02-26T14:53:16.839Z,10.67
2019-02-26T14:55:47.690Z,10.47
2019-02-26T14:58:18.372Z,10.43
2019-02-26T15:00:57.340Z,10.35
2019-02-26T15:03:21.829Z,10.46
2019-02-26T15:05:52.636Z,10.44
2019-02-26T15:08:23.176Z,10.40
2019-02-26T15:10:54.455Z,10.27
2019-02-26T15:13:25.572Z,10.25
2019-02-26T15:15:56.398Z,10.10
2019-02-26T15:18:27.049Z,10.02
2019-02-26T15:20:57.786Z,9.92
2019-02-26T15:23:28.851Z,9.79
2019-02-26T15:25:59.577Z,9.56
2019-02-26T15:28:31.572Z,9.56
2019-02-26T15:31:02.077Z,9.49
2019-02-26T15:33:33.404Z,9.38
2019-02-26T15:36:04.261Z,9.37
2019-02-26T15:38:34.901Z,9.28
2019-02-26T15:41:06.259Z,9.17
2019-02-26T15:43:36.811Z,9.17
2019-02-26T15:46:07.612Z,9.11
2019-02-26T15:48:38.602Z,9.18
2019-02-26T15:51:14.440Z,9.14
2019-02-26T15:53:41.605Z,9.06
2019-02-26T15:56:13.322Z,9.01
2019-02-26T15:58:43.809Z,8.89
2019-02-26T16:01:15.724Z,8.84
2019-02-26T16:03:46.690Z,8.74
2019-02-26T16:06:17.885Z,8.71
2019-02-26T16:08:48.328Z,8.59
2019-02-26T16:11:18.901Z,8.45
2019-02-26T16:13:49.684Z,8.39
2019-02-26T16:16:20.205Z,8.35
2019-02-26T16:18:50.646Z,8.12
2019-02-26T16:21:23.273Z,8.12
2019-02-26T16:23:54.132Z,8.04
2019-02-26T16:26:28.127Z,8.00
2019-02-26T16:29:00.808Z,7.90
2019-02-26T16:31:34.738Z,7.87
2019-02-26T16:34:05.774Z,7.78
2019-02-26T16:36:36.347Z,7.69
2019-02-26T16:39:08.221Z,7.62
2019-02-26T16:41:39.295Z,7.64
2019-02-26T16:44:11.821Z,7.59
2019-02-26T16:46:42.861Z,7.62
2019-02-26T16:49:13.647Z,7.47
2019-02-26T16:51:44.432Z,7.41
2019-02-26T16:54:15.830Z,7.40
2019-02-26T16:56:48.862Z,7.36
2019-02-26T16:59:24.218Z,7.40
2019-02-26T17:01:58.664Z,7.29
2019-02-26T17:04:30.925Z,7.38
2019-02-26T17:07:04.772Z,7.27
2019-02-26T17:09:37.038Z,7.23
2019-02-26T17:12:09.313Z,7.06
2019-02-26T17:14:40.034Z,7.09
2019-02-26T17:17:11.282Z,7.19
2019-02-26T17:19:42.340Z,7.20
2019-02-26T17:22:15.505Z,7.24
2019-02-26T17:24:53.359Z,7.19
2019-02-26T17:27:24.228Z,7.13
2019-02-26T17:29:56.144Z,7.06
2019-02-26T17:32:28.172Z,7.15
2019-02-26T17:35:02.879Z,7.09
2019-02-26T17:37:39.496Z,7.11
2019-02-26T17:40:15.211Z,7.07
2019-02-26T17:42:51.256Z,7.00
2019-02-26T17:45:23.314Z,6.94
2019-02-26T17:47:56.802Z,6.91
2019-02-26T17:50:33.647Z,6.87
2019-02-26T17:53:04.296Z,6.86
2019-02-26T17:55:36.590Z,6.81
2019-02-26T17:58:09.902Z,6.79
2019-02-26T18:00:44.885Z,6.72
2019-02-26T18:03:20.745Z,6.73
2019-02-26T18:05:53.872Z,6.71
2019-02-26T18:08:26.757Z,6.64
2019-02-26T18:10:57.599Z,6.58
2019-02-26T18:13:31.891Z,6.61
2019-02-26T18:16:09.107Z,6.62
2019-02-26T18:18:39.440Z,6.53
2019-02-26T18:21:15.641Z,6.51
2019-02-26T18:23:51.334Z,6.45
2019-02-26T18:26:25.559Z,6.40
2019-02-26T18:28:57.658Z,6.47
2019-02-26T18:31:31.719Z,6.45
2019-02-26T18:34:11.812Z,6.39
2019-02-26T18:36:45.447Z,6.38
2019-02-26T18:39:16.428Z,6.30
2019-02-26T18:41:50.815Z,6.35
2019-02-26T18:44:29.929Z,6.30
2019-02-26T18:47:02.045Z,6.21
2019-02-26T18:49:40.251Z,6.14
2019-02-26T18:52:10.881Z,6.06
2019-02-26T18:54:43.967Z,6.13
2019-02-26T18:57:15.579Z,6.06
2019-02-26T18:59:46.253Z,6.00
2019-02-26T19:02:19.362Z,5.95
2019-02-26T19:04:52.723Z,5.91
2019-02-26T19:07:32.979Z,5.86
2019-02-26T19:10:02.857Z,5.89
2019-02-26T19:12:38.669Z,5.88
2019-02-26T19:15:16.096Z,5.86
2019-02-26T19:17:54.016Z,5.85
2019-02-26T19:20:35.451Z,5.90
2019-02-26T19:23:13.622Z,5.80
2019-02-26T19:25:52.401Z,5.79
2019-02-26T19:28:26.468Z,5.67
2019-02-26T19:30:58.884Z,5.62
2019-02-26T19:33:30.697Z,5.63
2019-02-26T19:36:07.595Z,5.58
2019-02-26T19:38:39.342Z,5.53
2019-02-26T19:41:14.311Z,5.57
2019-02-26T19:43:45.475Z,5.53
2019-02-26T19:46:21.487Z,5.52
2019-02-26T19:48:54.115Z,5.45
2019-02-26T19:51:29.464Z,5.42
2019-02-26T19:54:10.307Z,5.49
2019-02-26T19:56:44.993Z,5.47
2019-02-26T19:59:21.714Z,5.46
2019-02-26T20:02:01.656Z,5.38
2019-02-26T20:04:38.292Z,5.31
2019-02-26T20:07:14.375Z,5.16
2019-02-26T20:09:45.812Z,5.18
2019-02-26T20:12:22.188Z,5.19
2019-02-26T20:14:56.814Z,5.15
2019-02-26T20:17:36.777Z,5.10
2019-02-26T20:20:17.331Z,5.16
2019-02-26T20:22:48.401Z,5.08
2019-02-26T20:25:19.736Z,5.07
2019-02-26T20:28:01.764Z,5.03
2019-02-26T20:30:33.577Z,4.89
2019-02-26T20:33:10.842Z,4.82
2019-02-26T20:35:45.381Z,4.89
2019-02-26T20:38:23.287Z,4.86
2019-02-26T20:40:55.008Z,4.74
2019-02-26T20:43:28.141Z,4.66
2019-02-26T20:46:07.286Z,4.64
2019-02-26T20:48:37.860Z,4.58
2019-02-26T20:51:10.708Z,4.42
2019-02-26T20:53:42.332Z,4.45
2019-02-26T20:56:18.712Z,4.51
2019-02-26T20:58:49.312Z,4.36
2019-02-26T21:01:26.496Z,4.45
2019-02-26T21:03:57.531Z,4.39
2019-02-26T21:06:32.746Z,4.41
2019-02-26T21:09:07.258Z,4.52
2019-02-26T21:11:41.697Z,4.54
2019-02-26T21:14:15.624Z,4.55
2019-02-26T21:16:46.539Z,4.46
2019-02-26T21:19:18.634Z,4.41
2019-02-26T21:21:55.597Z,4.40
2019-02-26T21:24:28.405Z,4.47
2019-02-26T21:27:00.344Z,4.38
2019-02-26T21:29:31.934Z,4.24
2019-02-26T21:32:03.591Z,4.28
2019-02-26T21:34:36.302Z,4.30
2019-02-26T21:37:06.893Z,4.30
2019-02-26T21:39:37.361Z,4.23
2019-02-26T21:42:09.060Z,4.16
2019-02-26T21:44:41.943Z,4.24
2019-02-26T21:47:11.953Z,4.22
2019-02-26T21:49:42.295Z,4.24
2019-02-26T21:52:12.833Z,4.18
2019-02-26T21:54:43.265Z,4.26
2019-02-26T21:57:13.834Z,4.12
2019-02-26T21:59:50.017Z,4.16
2019-02-26T22:02:18.661Z,4.24
2019-02-26T22:04:48.732Z,4.17
2019-02-26T22:07:19.875Z,4.21
2019-02-26T22:09:50.380Z,4.26
2019-02-26T22:12:21.827Z,4.19
2019-02-26T22:14:53.166Z,4.25
2019-02-26T22:17:25.224Z,4.12
2019-02-26T22:19:56.025Z,4.18
2019-02-26T22:22:26.778Z,4.06
2019-02-26T22:24:57.911Z,4.03
2019-02-26T22:27:28.505Z,4.03
2019-02-26T22:29:58.991Z,4.03
2019-02-26T22:32:29.491Z,3.96
2019-02-26T22:35:00.216Z,3.91
2019-02-26T22:37:30.670Z,3.92
2019-02-26T22:40:01.179Z,4.02
2019-02-26T22:42:31.785Z,4.02
2019-02-26T22:45:02.474Z,3.98
2019-02-26T22:47:33.766Z,4.04
2019-02-26T22:50:04.659Z,4.03
2019-02-26T22:52:35.357Z,4.04
2019-02-26T22:55:06.461Z,3.95
2019-02-26T22:57:37.089Z,3.91
2019-02-26T23:00:58.065Z,3.89
2019-02-26T23:03:28.591Z,3.83
2019-02-26T23:05:59.678Z,3.73
2019-02-26T23:08:30.343Z,3.73
2019-02-26T23:11:00.896Z,3.65
2019-02-26T23:13:32.614Z,3.54
2019-02-26T23:16:04.202Z,3.61
2019-02-26T23:18:35.146Z,3.48
2019-02-26T23:21:05.813Z,3.48
2019-02-26T23:23:36.416Z,3.39
2019-02-26T23:26:08.923Z,3.41
2019-02-26T23:28:39.886Z,3.42
2019-02-26T23:31:10.900Z,3.35
2019-02-26T23:33:41.947Z,3.28
2019-02-26T23:36:13.104Z,3.36
2019-02-26T23:38:44.300Z,3.04
2019-02-26T23:41:15.322Z,3.00
2019-02-26T23:43:46.089Z,3.05
2019-02-26T23:46:16.976Z,2.79
2019-02-26T23:48:47.536Z,2.79
2019-02-26T23:51:21.179Z,2.65
2019-02-26T23:53:50.647Z,2.45
2019-02-26T23:56:21.206Z,2.42
2019-02-26T23:58:51.746Z,2.29
